Time;durP1;ratioP1;P1;durP2;ratioP2;P2;SDS_P1;SDS_P2;PMS_P1;PMS_P2;Temp;Humidity;BMP_temperature;BMP_pressure;BME280_temperature;BME280_humidity;BME280_pressure;Samples;Min_cycle;Max_cycle;Signal;HPM_P1;HPM_P2
2023/01/01 00:01:38;;;;;;;6.43;5.05;;;16.20;95.20;;;;;;5072891;28;20282;-66
2023/01/01 00:04:27;;;;;;;6.80;5.03;;;16.20;95.20;;;;;;5072208;28;20681;-67
2023/01/01 00:07:15;;;;;;;5.93;4.82;;;16.20;95.20;;;;;;5072887;28;20216;-68
2023/01/01 00:13:13;;;;;;;5.63;5.10;;;16.20;95.20;;;;;;5071127;28;20220;-65
2023/01/01 00:16:04;;;;;;;5.95;5.03;;;16.20;95.20;;;;;;5072869;28;20196;-69
2023/01/01 00:18:52;;;;;;;6.90;4.30;;;16.20;95.20;;;;;;5071673;28;20615;-70
2023/01/01 00:21:40;;;;;;;7.95;5.32;;;16.20;95.20;;;;;;5072241;28;20201;-72
2023/01/01 00:24:28;;;;;;;5.72;4.80;;;16.30;95.20;;;;;;5073035;28;20192;-69
2023/01/01 00:27:18;;;;;;;6.13;4.65;;;16.30;95.20;;;;;;5072500;28;20294;-72
2023/01/01 00:30:07;;;;;;;6.90;5.32;;;16.20;95.20;;;;;;5071572;28;20575;-66
2023/01/01 00:32:55;;;;;;;8.30;5.20;;;16.20;95.10;;;;;;5071643;28;20708;-67
2023/01/01 00:35:43;;;;;;;7.13;5.05;;;16.30;95.20;;;;;;5071595;28;20665;-69
2023/01/01 00:38:32;;;;;;;6.20;4.85;;;16.30;95.20;;;;;;5071391;28;20317;-68
2023/01/01 00:41:21;;;;;;;5.47;4.90;;;16.20;95.50;;;;;;5070667;28;20301;-72
2023/01/01 00:44:11;;;;;;;6.05;5.43;;;16.20;95.20;;;;;;5071280;28;20661;-68
2023/01/01 00:46:59;;;;;;;7.82;6.22;;;16.30;95.20;;;;;;5072632;28;20335;-69
2023/01/01 00:49:47;;;;;;;5.53;5.03;;;16.20;95.10;;;;;;5070950;28;20207;-69
2023/01/01 00:52:35;;;;;;;6.65;6.00;;;16.20;95.10;;;;;;5072187;28;20205;-68
2023/01/01 00:55:23;;;;;;;6.05;4.93;;;16.30;95.20;;;;;;5071148;28;20240;-70
2023/01/01 00:58:11;;;;;;;7.97;6.05;;;16.30;95.20;;;;;;5071230;28;20277;-69
2023/01/01 01:01:01;;;;;;;7.13;5.80;;;16.30;95.20;;;;;;5071227;28;20200;-69
2023/01/01 01:03:49;;;;;;;7.78;5.85;;;16.30;95.20;;;;;;5070937;28;20193;-67
2023/01/01 01:06:37;;;;;;;8.40;6.00;;;16.50;98.80;;;;;;5070849;28;20196;-68
2023/01/01 01:09:25;;;;;;;7.20;6.50;;;16.20;95.20;;;;;;5070529;28;20271;-70
2023/01/01 01:12:13;;;;;;;6.93;6.20;;;16.30;95.20;;;;;;5072221;28;20196;-70
2023/01/01 01:15:07;;;;;;;7.03;5.82;;;16.30;95.20;;;;;;5070975;28;20260;-68
2023/01/01 01:17:57;;;;;;;7.78;5.82;;;16.20;95.10;;;;;;5071393;28;20297;-71
2023/01/01 01:20:50;;;;;;;6.25;5.65;;;16.30;95.20;;;;;;5070802;28;20200;-68
2023/01/01 01:23:38;;;;;;;7.88;5.90;;;16.20;95.10;;;;;;5071418;28;20669;-68
2023/01/01 01:26:27;;;;;;;7.00;6.13;;;16.20;95.10;;;;;;5071958;28;20614;-68
2023/01/01 01:29:15;;;;;;;9.27;6.75;;;16.20;95.10;;;;;;5070691;28;20222;-66
2023/01/01 01:32:04;;;;;;;6.55;5.82;;;16.30;95.10;;;;;;5071552;28;20275;-69
2023/01/01 01:34:53;;;;;;;6.32;5.70;;;16.30;95.20;;;;;;5070637;28;20248;-69
2023/01/01 01:37:42;;;;;;;11.15;6.78;;;16.30;95.20;;;;;;5070997;28;20325;-72
2023/01/01 01:40:30;;;;;;;6.88;6.15;;;16.30;95.20;;;;;;5071599;28;20281;-71
2023/01/01 01:43:24;;;;;;;6.82;5.82;;;16.30;95.20;;;;;;5071371;28;20206;-70
2023/01/01 01:46:15;;;;;;;6.97;6.10;;;16.30;95.20;;;;;;5070616;28;20288;-71
2023/01/01 01:49:14;;;;;;;6.80;5.45;;;16.30;95.20;;;;;;5070171;28;20204;-68
2023/01/01 01:52:04;;;;;;;7.43;5.65;;;16.30;95.10;;;;;;5071370;28;20298;-68
2023/01/01 01:54:53;;;;;;;7.28;6.45;;;16.30;95.10;;;;;;5070638;28;20604;-71
2023/01/01 01:57:41;;;;;;;7.93;6.65;;;16.30;95.10;;;;;;5071032;28;20736;-69
2023/01/01 02:00:29;;;;;;;5.88;5.30;;;16.30;95.10;;;;;;5070180;28;20282;-70
2023/01/01 02:03:22;;;;;;;9.07;6.18;;;16.30;95.10;;;;;;5070253;28;20201;-67
2023/01/01 02:06:11;;;;;;;7.85;6.18;;;16.30;95.10;;;;;;5070667;28;20227;-68
2023/01/01 02:09:03;;;;;;;8.00;7.07;;;16.30;95.10;;;;;;5071002;28;20684;-68
2023/01/01 02:11:52;;;;;;;7.13;6.43;;;16.30;95.10;;;;;;5069599;28;20204;-69
2023/01/01 02:14:40;;;;;;;6.85;6.00;;;16.30;95.10;;;;;;5070309;28;20256;-68
2023/01/01 02:17:33;;;;;;;6.70;6.07;;;16.30;95.10;;;;;;5070937;28;20585;-69
2023/01/01 02:20:35;;;;;;;8.35;6.43;;;16.30;95.10;;;;;;5069508;28;20280;-71
2023/01/01 02:23:47;;;;;;;12.52;6.63;;;16.30;95.10;;;;;;5070758;28;20235;-67
2023/01/01 02:26:49;;;;;;;7.35;6.22;;;16.60;98.10;;;;;;5070626;28;20254;-70
2023/01/01 02:29:45;;;;;;;7.30;5.80;;;16.30;95.10;;;;;;5069262;28;20758;-69
2023/01/01 02:32:38;;;;;;;6.68;5.95;;;16.30;95.10;;;;;;5070572;28;20275;-68
2023/01/01 02:35:36;;;;;;;8.27;6.07;;;16.30;95.10;;;;;;5070656;28;20269;-68
2023/01/01 02:38:28;;;;;;;7.07;6.35;;;16.40;95.10;;;;;;5070320;28;20236;-68
2023/01/01 02:41:24;;;;;;;8.57;6.35;;;16.30;95.10;;;;;;5070272;28;20236;-68
2023/01/01 02:44:13;;;;;;;8.98;6.18;;;16.40;95.10;;;;;;5070653;28;20275;-70
2023/01/01 02:47:09;;;;;;;7.13;6.38;;;16.40;95.10;;;;;;5070520;28;20304;-67
2023/01/01 02:50:02;;;;;;;8.45;5.97;;;16.30;95.00;;;;;;5079030;28;20200;-69
2023/01/01 02:53:06;;;;;;;7.82;6.43;;;16.20;94.70;;;;;;5073180;28;20691;-70
2023/01/01 02:56:05;;;;;;;7.13;6.10;;;16.40;95.10;;;;;;5074509;28;20220;-68
2023/01/01 03:02:26;;;;;;;7.45;6.53;;;16.30;95.00;;;;;;5025920;28;20201;-68
2023/01/01 03:05:19;;;;;;;7.00;6.30;;;16.30;95.00;;;;;;5073904;28;20272;-70
2023/01/01 03:08:14;;;;;;;10.48;6.40;;;16.40;95.00;;;;;;5074516;28;20227;-67
2023/01/01 03:11:07;;;;;;;8.48;6.30;;;16.30;95.00;;;;;;5073672;28;20706;-71
2023/01/01 03:14:02;;;;;;;8.27;6.80;;;16.40;95.00;;;;;;5072877;28;20338;-67
2023/01/01 03:16:53;;;;;;;9.15;6.75;;;16.40;95.00;;;;;;5073530;28;20219;-71
2023/01/01 03:19:45;;;;;;;7.00;6.30;;;16.30;95.00;;;;;;5073342;28;20240;-71
2023/01/01 03:22:36;;;;;;;8.10;5.93;;;16.40;95.00;;;;;;5073597;28;20286;-71
2023/01/01 03:25:29;;;;;;;6.43;5.72;;;16.40;95.00;;;;;;5073511;28;20661;-71
2023/01/01 03:28:21;;;;;;;6.82;5.68;;;16.40;95.00;;;;;;5072984;28;20225;-70
2023/01/01 03:31:10;;;;;;;6.90;6.20;;;16.30;95.00;;;;;;5073217;28;20673;-71
2023/01/01 03:34:02;;;;;;;7.88;6.20;;;16.40;95.00;;;;;;5073866;28;20201;-71
2023/01/01 03:36:55;;;;;;;6.47;5.88;;;16.30;95.00;;;;;;5073097;28;20343;-69
2023/01/01 03:39:49;;;;;;;7.07;6.18;;;16.40;95.00;;;;;;5073119;28;20290;-69
2023/01/01 03:42:41;;;;;;;7.93;6.50;;;16.30;95.00;;;;;;5074269;28;20569;-71
2023/01/01 03:45:31;;;;;;;7.70;6.10;;;16.30;95.00;;;;;;5073827;28;20609;-71
2023/01/01 03:48:19;;;;;;;6.78;6.07;;;16.40;95.00;;;;;;5072924;28;20223;-68
2023/01/01 03:51:14;;;;;;;6.22;5.63;;;16.40;95.00;;;;;;5072506;28;20193;-72
2023/01/01 03:54:09;;;;;;;6.93;5.88;;;16.30;95.00;;;;;;5073683;28;20212;-71
2023/01/01 03:57:05;;;;;;;7.07;6.38;;;16.40;95.00;;;;;;5072359;28;20224;-68
2023/01/01 04:00:02;;;;;;;7.47;5.88;;;16.30;95.00;;;;;;5072550;28;20207;-68
2023/01/01 04:02:54;;;;;;;7.13;6.43;;;16.40;95.00;;;;;;5072510;28;20215;-70
2023/01/01 04:05:43;;;;;;;9.35;5.78;;;16.30;95.00;;;;;;5071940;28;20189;-71
2023/01/01 04:08:32;;;;;;;6.70;6.07;;;16.40;95.00;;;;;;5071997;28;20324;-72
2023/01/01 04:14:36;;;;;;;7.78;6.95;;;16.40;95.00;;;;;;5072352;28;20252;-67
2023/01/01 04:17:24;;;;;;;7.13;6.43;;;16.40;95.00;;;;;;5072329;28;20256;-70
2023/01/01 04:20:13;;;;;;;7.28;6.20;;;16.40;95.00;;;;;;5072610;28;20197;-69
2023/01/01 04:23:03;;;;;;;6.43;5.75;;;16.30;94.90;;;;;;5072189;28;20293;-68
2023/01/01 04:25:51;;;;;;;7.17;5.83;;;16.40;95.00;;;;;;5072524;28;20673;-70
2023/01/01 04:28:41;;;;;;;6.45;5.22;;;16.40;95.00;;;;;;5071761;28;20231;-67
2023/01/01 04:31:29;;;;;;;7.88;5.85;;;16.30;94.90;;;;;;5072203;28;20196;-70
2023/01/01 04:34:17;;;;;;;7.18;6.47;;;16.40;95.00;;;;;;5072008;28;20280;-70
2023/01/01 04:37:05;;;;;;;8.02;6.35;;;16.40;95.00;;;;;;5071271;28;20229;-71
2023/01/01 04:40:00;;;;;;;6.55;5.43;;;16.30;94.90;;;;;;5071755;28;20693;-71
2023/01/01 04:42:48;;;;;;;7.45;6.03;;;16.40;95.00;;;;;;5071763;28;20278;-68
2023/01/01 04:45:37;;;;;;;7.07;5.75;;;16.40;94.90;;;;;;5072711;28;20211;-67
2023/01/01 04:48:26;;;;;;;6.63;5.72;;;16.40;95.00;;;;;;5071272;28;20220;-68
2023/01/01 04:51:16;;;;;;;5.97;5.38;;;16.40;95.00;;;;;;5072306;28;20695;-68
2023/01/01 04:54:04;;;;;;;6.28;5.68;;;16.40;94.90;;;;;;5072495;28;20200;-66
2023/01/01 04:56:52;;;;;;;6.70;5.93;;;16.40;94.90;;;;;;5070874;28;20232;-69
2023/01/01 04:59:41;;;;;;;7.25;5.90;;;16.40;95.00;;;;;;5085106;28;20680;-69
2023/01/01 05:02:30;;;;;;;7.13;6.20;;;16.40;95.00;;;;;;5091802;28;20275;-68
2023/01/01 05:05:18;;;;;;;7.72;5.55;;;16.40;95.00;;;;;;5093283;28;20203;-68
2023/01/01 05:08:06;;;;;;;6.78;5.72;;;16.40;95.00;;;;;;5091223;28;20296;-69
2023/01/01 05:10:59;;;;;;;6.90;6.20;;;16.40;94.90;;;;;;5092762;28;20279;-70
2023/01/01 05:13:50;;;;;;;6.93;5.88;;;16.40;94.90;;;;;;5092256;28;20329;-69
2023/01/01 05:16:40;;;;;;;7.63;5.63;;;16.40;99.00;;;;;;5091412;28;20220;-70
2023/01/01 05:19:29;;;;;;;9.25;5.88;;;16.40;94.90;;;;;;5090984;28;20204;-69
2023/01/01 05:22:17;;;;;;;5.05;4.53;;;16.40;94.90;;;;;;5092756;28;20329;-67
2023/01/01 05:25:06;;;;;;;6.45;5.32;;;16.40;94.90;;;;;;5092188;28;20204;-68
2023/01/01 05:27:54;;;;;;;5.65;5.15;;;16.40;94.90;;;;;;5090831;28;20223;-68
2023/01/01 05:30:42;;;;;;;6.20;5.53;;;16.40;94.90;;;;;;5092575;28;20228;-67
2023/01/01 05:33:30;;;;;;;6.28;5.45;;;16.40;94.90;;;;;;5091422;28;20550;-68
2023/01/01 05:36:21;;;;;;;6.22;5.28;;;16.40;94.90;;;;;;5092709;28;20227;-68
2023/01/01 05:39:11;;;;;;;6.28;5.32;;;16.40;94.90;;;;;;5091455;28;20196;-68
2023/01/01 05:41:59;;;;;;;6.40;5.40;;;16.40;94.90;;;;;;5090884;28;20207;-70
2023/01/01 05:44:47;;;;;;;5.93;4.78;;;16.40;94.90;;;;;;5092710;28;20198;-68
2023/01/01 05:47:35;;;;;;;6.15;5.53;;;16.40;94.90;;;;;;5090758;28;20220;-71
2023/01/01 05:50:23;;;;;;;5.10;4.70;;;16.40;94.90;;;;;;5092423;28;20287;-67
2023/01/01 05:53:13;;;;;;;5.72;5.07;;;16.40;94.90;;;;;;5090773;28;20646;-72
2023/01/01 05:56:01;;;;;;;7.72;5.15;;;16.40;94.90;;;;;;5090336;28;20215;-70
2023/01/01 05:58:50;;;;;;;6.93;5.65;;;16.40;94.90;;;;;;5089968;28;20392;-66
2023/01/01 06:01:38;;;;;;;7.00;5.90;;;16.40;94.90;;;;;;5090722;28;20241;-70
2023/01/01 06:04:32;;;;;;;6.60;6.05;;;16.40;94.80;;;;;;5091603;28;20195;-67
2023/01/01 06:07:20;;;;;;;5.18;4.60;;;16.40;94.80;;;;;;5092414;28;20212;-71
2023/01/01 06:10:10;;;;;;;6.03;5.07;;;16.40;94.80;;;;;;5092052;28;20283;-72
2023/01/01 06:12:58;;;;;;;6.72;5.55;;;16.40;94.80;;;;;;5089871;28;20204;-68
2023/01/01 06:15:53;;;;;;;6.75;4.85;;;16.50;94.90;;;;;;5092158;28;20801;-69
2023/01/01 06:18:42;;;;;;;5.53;4.78;;;16.40;94.80;;;;;;5091961;28;20222;-68
2023/01/01 06:21:30;;;;;;;7.32;5.53;;;16.40;94.80;;;;;;5092139;28;20749;-66
2023/01/01 06:24:18;;;;;;;5.47;4.78;;;16.40;94.80;;;;;;5091116;28;20607;-69
2023/01/01 06:27:07;;;;;;;8.55;5.25;;;16.40;94.80;;;;;;5096245;28;20216;-67
2023/01/01 06:29:56;;;;;;;6.05;4.50;;;16.40;94.80;;;;;;5094111;28;20232;-70
2023/01/01 06:32:44;;;;;;;6.25;5.10;;;16.40;94.80;;;;;;5096063;28;20688;-70
2023/01/01 06:35:32;;;;;;;6.15;5.10;;;16.40;94.80;;;;;;5095868;28;20281;-68
2023/01/01 06:38:20;;;;;;;7.22;5.55;;;16.40;94.50;;;;;;5115941;22;20315;-65
2023/01/01 06:41:11;;;;;;;5.13;4.57;;;16.40;94.80;;;;;;5094121;28;20252;-66
2023/01/01 06:44:00;;;;;;;6.60;5.50;;;16.40;94.80;;;;;;5094776;28;20200;-66
2023/01/01 06:46:49;;;;;;;7.82;5.35;;;16.40;94.80;;;;;;5094883;28;20572;-66
2023/01/01 06:49:37;;;;;;;4.88;4.22;;;16.40;94.80;;;;;;5074865;28;20537;-66
2023/01/01 06:52:25;;;;;;;4.63;4.22;;;16.50;94.90;;;;;;5073781;28;20208;-66
2023/01/01 06:55:13;;;;;;;6.55;4.28;;;16.40;94.80;;;;;;5074902;28;20220;-66
2023/01/01 06:58:01;;;;;;;5.28;4.78;;;16.40;94.80;;;;;;5074952;28;20479;-65
2023/01/01 07:00:50;;;;;;;5.82;5.05;;;16.40;94.80;;;;;;5073875;28;20201;-66
2023/01/01 07:03:39;;;;;;;6.70;5.22;;;16.40;94.80;;;;;;5074272;28;20245;-66
2023/01/01 07:06:29;;;;;;;5.70;5.03;;;16.40;94.80;;;;;;5073690;28;20204;-66
2023/01/01 07:09:17;;;;;;;7.45;5.55;;;16.40;94.80;;;;;;5074888;28;20324;-66
2023/01/01 07:12:06;;;;;;;5.05;4.40;;;16.40;94.80;;;;;;5075346;28;20275;-66
2023/01/01 07:14:54;;;;;;;7.63;4.13;;;16.40;94.80;;;;;;5073452;28;20224;-66
2023/01/01 07:17:43;;;;;;;5.40;4.68;;;16.40;94.80;;;;;;5074259;28;20225;-66
2023/01/01 07:20:31;;;;;;;6.43;4.50;;;16.50;94.80;;;;;;5073908;28;20192;-66
2023/01/01 07:23:19;;;;;;;5.25;4.35;;;16.90;95.00;;;;;;5074111;28;20196;-66
2023/01/01 07:26:07;;;;;;;5.30;4.53;;;16.50;94.80;;;;;;5074335;28;20197;-66
2023/01/01 07:28:56;;;;;;;5.43;4.93;;;16.50;94.80;;;;;;5073995;28;20617;-66
2023/01/01 07:31:53;;;;;;;6.78;4.40;;;16.50;94.80;;;;;;5074315;28;20200;-66
2023/01/01 07:34:42;;;;;;;4.60;4.20;;;16.50;94.80;;;;;;5074035;28;20576;-66
2023/01/01 07:37:38;;;;;;;5.00;4.10;;;16.40;94.70;;;;;;5073058;28;20224;-66
2023/01/01 07:40:26;;;;;;;7.78;4.90;;;16.50;94.80;;;;;;5073889;28;20657;-66
2023/01/01 07:43:14;;;;;;;5.55;5.05;;;16.50;94.80;;;;;;5073625;28;20288;-66
2023/01/01 07:46:02;;;;;;;6.90;4.97;;;16.50;94.80;;;;;;5074227;28;20614;-65
2023/01/01 07:48:50;;;;;;;5.82;4.53;;;16.50;94.80;;;;;;5073103;28;20217;-66
2023/01/01 07:51:40;;;;;;;5.53;4.45;;;16.40;94.70;;;;;;5072771;28;20193;-66
2023/01/01 07:54:28;;;;;;;7.03;4.15;;;16.50;94.80;;;;;;5073774;28;20386;-66
2023/01/01 07:57:16;;;;;;;5.28;4.28;;;16.60;99.30;;;;;;5073384;28;20307;-66
2023/01/01 08:00:05;;;;;;;6.10;4.30;;;16.40;94.70;;;;;;5073394;28;20205;-66
2023/01/01 08:02:53;;;;;;;6.80;4.20;;;16.40;94.70;;;;;;5074016;28;20287;-65
2023/01/01 08:05:41;;;;;;;4.43;4.00;;;16.40;94.70;;;;;;5073130;28;20200;-65
2023/01/01 08:08:31;;;;;;;5.22;4.40;;;16.40;94.70;;;;;;5072699;28;20748;-66
2023/01/01 08:11:19;;;;;;;4.63;4.10;;;16.50;94.80;;;;;;5073325;28;20353;-66
2023/01/01 08:14:07;;;;;;;4.45;4.03;;;16.50;94.70;;;;;;5073071;28;20208;-65
2023/01/01 08:16:55;;;;;;;4.57;4.03;;;16.50;94.70;;;;;;5073657;28;20220;-66
2023/01/01 08:19:43;;;;;;;6.00;4.30;;;16.50;94.70;;;;;;5072516;28;20229;-65
2023/01/01 08:22:31;;;;;;;4.38;3.75;;;16.40;94.70;;;;;;5072478;28;20207;-66
2023/01/01 08:25:21;;;;;;;4.38;3.97;;;16.50;94.70;;;;;;5072359;28;20279;-66
2023/01/01 08:28:09;;;;;;;5.20;4.70;;;16.50;94.70;;;;;;5074659;28;20362;-66
2023/01/01 08:30:58;;;;;;;5.43;3.95;;;16.50;94.70;;;;;;5080013;28;20279;-66
2023/01/01 08:33:46;;;;;;;4.40;3.85;;;16.50;94.70;;;;;;5077248;28;20338;-66
2023/01/01 08:36:34;;;;;;;4.32;3.92;;;16.50;94.70;;;;;;5072568;28;20204;-66
2023/01/01 08:39:22;;;;;;;4.68;4.20;;;16.50;94.70;;;;;;5074005;28;20575;-66
2023/01/01 08:42:12;;;;;;;4.28;3.88;;;16.50;94.50;;;;;;5072358;28;20259;-66
2023/01/01 08:45:00;;;;;;;6.40;4.50;;;16.50;94.70;;;;;;5072329;28;20618;-66
2023/01/01 08:47:48;;;;;;;4.75;4.35;;;16.50;94.70;;;;;;5071871;28;20300;-66
2023/01/01 08:50:36;;;;;;;4.50;4.03;;;16.50;94.70;;;;;;5072448;28;20276;-66
2023/01/01 08:53:24;;;;;;;6.10;4.20;;;16.50;94.70;;;;;;5072113;28;20201;-66
2023/01/01 08:56:14;;;;;;;5.30;4.32;;;16.50;94.70;;;;;;5072273;28;20279;-66
2023/01/01 08:59:04;;;;;;;4.93;4.18;;;16.50;94.70;;;;;;5072338;28;20700;-66
2023/01/01 09:01:52;;;;;;;5.13;3.95;;;16.50;94.80;;;;;;5071521;28;20201;-66
2023/01/01 09:04:40;;;;;;;5.30;3.90;;;16.50;94.70;;;;;;5072283;28;20204;-66
2023/01/01 09:07:28;;;;;;;4.78;4.22;;;16.50;94.70;;;;;;5071973;28;20245;-66
2023/01/01 09:10:16;;;;;;;5.03;4.18;;;16.50;94.70;;;;;;5071774;28;20205;-66
2023/01/01 09:13:05;;;;;;;5.07;3.85;;;16.50;94.70;;;;;;5071719;28;20208;-66
2023/01/01 09:15:54;;;;;;;4.18;3.78;;;16.50;94.70;;;;;;5072265;28;20338;-66
2023/01/01 09:18:42;;;;;;;3.90;3.60;;;16.50;94.70;;;;;;5071356;28;20704;-66
2023/01/01 09:21:30;;;;;;;5.28;4.05;;;16.50;94.70;;;;;;5072410;28;20280;-66
2023/01/01 09:24:18;;;;;;;4.47;3.75;;;16.50;94.70;;;;;;5072896;28;20232;-66
2023/01/01 09:27:06;;;;;;;4.70;4.15;;;16.30;99.40;;;;;;5071755;28;20192;-66
2023/01/01 09:29:55;;;;;;;5.50;4.13;;;16.50;94.70;;;;;;5071830;28;20200;-66
2023/01/01 09:32:44;;;;;;;4.40;3.67;;;16.50;94.70;;;;;;5071887;28;20196;-66
2023/01/01 09:35:32;;;;;;;4.18;3.78;;;16.50;94.70;;;;;;5071963;28;20291;-66
2023/01/01 09:38:20;;;;;;;4.78;4.03;;;16.50;94.70;;;;;;5071050;28;20252;-67
2023/01/01 09:41:19;;;;;;;4.57;3.45;;;16.50;94.70;;;;;;5071849;28;20617;-66
2023/01/01 09:44:20;;;;;;;4.40;4.00;;;16.50;94.70;;;;;;5071241;28;20306;-68
2023/01/01 09:47:20;;;;;;;5.57;3.90;;;16.50;97.00;;;;;;5072612;28;20277;-66
2023/01/01 09:50:13;;;;;;;5.85;3.63;;;16.50;94.70;;;;;;5071751;28;20204;-66
2023/01/01 09:53:05;;;;;;;7.47;3.55;;;16.50;94.70;;;;;;5072067;28;20310;-66
2023/01/01 09:55:57;;;;;;;3.80;3.35;;;16.50;94.70;;;;;;5071466;28;20669;-66
2023/01/01 09:58:45;;;;;;;5.65;4.03;;;16.50;94.70;;;;;;5072461;28;20307;-66
2023/01/01 10:01:42;;;;;;;4.25;3.85;;;16.50;94.70;;;;;;5074925;28;20287;-67
2023/01/01 10:04:44;;;;;;;3.63;3.13;;;16.50;94.70;;;;;;5076019;28;20204;-66
2023/01/01 10:07:40;;;;;;;5.07;3.90;;;16.50;94.70;;;;;;5076048;28;20568;-66
2023/01/01 10:10:38;;;;;;;6.45;3.38;;;16.50;94.70;;;;;;5075776;28;20606;-66
2023/01/01 10:13:32;;;;;;;5.07;3.30;;;16.50;94.60;;;;;;5075567;28;20197;-66
2023/01/01 10:16:31;;;;;;;3.65;3.33;;;16.50;94.70;;;;;;5075422;28;20224;-66
2023/01/01 10:19:26;;;;;;;4.25;3.80;;;16.50;94.70;;;;;;5075005;28;20227;-66
2023/01/01 10:22:20;;;;;;;5.80;4.32;;;16.50;94.70;;;;;;5075263;28;20279;-66
2023/01/01 10:25:17;;;;;;;4.40;3.10;;;16.50;94.70;;;;;;5075892;28;20220;-66
2023/01/01 10:28:11;;;;;;;3.80;3.40;;;16.50;94.70;;;;;;5076178;28;20354;-66
2023/01/01 10:31:13;;;;;;;3.92;3.53;;;16.50;95.00;;;;;;5076781;28;20203;-66
2023/01/01 10:34:17;;;;;;;3.85;3.50;;;16.60;94.70;;;;;;5074254;28;20196;-66
2023/01/01 10:37:05;;;;;;;3.80;3.10;;;16.70;97.10;;;;;;5076487;28;20686;-66
2023/01/01 10:39:53;;;;;;;3.58;3.25;;;16.50;94.70;;;;;;5075356;28;20327;-66
2023/01/01 10:42:46;;;;;;;3.67;3.28;;;16.50;94.70;;;;;;5076581;28;20275;-66
2023/01/01 10:45:41;;;;;;;3.72;3.30;;;16.50;94.70;;;;;;5074972;28;20279;-66
2023/01/01 10:48:31;;;;;;;4.10;3.30;;;16.50;94.40;;;;;;5079549;28;20217;-66
2023/01/01 10:51:25;;;;;;;5.10;3.25;;;16.60;94.70;;;;;;5084690;28;20207;-66
2023/01/01 10:54:25;;;;;;;3.17;2.80;;;16.60;94.70;;;;;;5085347;28;20201;-66
2023/01/01 10:57:28;;;;;;;4.15;3.33;;;16.40;99.50;;;;;;5077683;28;20207;-66
2023/01/01 11:00:23;;;;;;;5.63;3.47;;;16.50;94.70;;;;;;5074653;28;20200;-66
2023/01/01 11:03:17;;;;;;;3.30;3.00;;;16.60;94.70;;;;;;5075418;28;20291;-66
2023/01/01 11:06:17;;;;;;;3.38;3.08;;;16.50;94.60;;;;;;5073521;28;20676;-66
2023/01/01 11:09:18;;;;;;;6.05;3.50;;;16.60;94.70;;;;;;5076258;28;20213;-66
2023/01/01 11:12:16;;;;;;;3.30;3.00;;;16.60;94.70;;;;;;5073569;28;20279;-66
2023/01/01 11:15:36;;;;;;;3.42;3.13;;;16.50;94.60;;;;;;5074590;28;20688;-66
2023/01/01 11:18:34;;;;;;;3.20;2.90;;;16.60;94.70;;;;;;5074280;28;20224;-66
2023/01/01 11:21:24;;;;;;;3.13;2.83;;;16.60;94.70;;;;;;5074012;28;20240;-66
2023/01/01 11:24:19;;;;;;;3.38;3.08;;;16.50;94.70;;;;;;5074224;28;20254;-67
2023/01/01 11:27:17;;;;;;;3.75;3.05;;;16.60;99.50;;;;;;5073895;28;20203;-66
2023/01/01 11:30:27;;;;;;;3.60;3.20;;;16.60;94.70;;;;;;5074103;28;20193;-67
2023/01/01 11:33:17;;;;;;;4.03;3.40;;;16.60;94.70;;;;;;5073060;28;20327;-66
2023/01/01 11:36:06;;;;;;;3.45;3.10;;;16.50;94.70;;;;;;5072458;28;20267;-66
2023/01/01 11:39:07;;;;;;;3.33;3.03;;;16.60;94.70;;;;;;5073482;28;20229;-66
2023/01/01 11:41:57;;;;;;;4.07;3.70;;;16.60;94.70;;;;;;5073447;28;20203;-66
2023/01/01 11:44:48;;;;;;;4.70;3.47;;;16.60;94.70;;;;;;5073782;28;20698;-66
2023/01/01 11:47:39;;;;;;;3.15;2.85;;;16.60;94.70;;;;;;5074308;28;20605;-66
2023/01/01 11:50:30;;;;;;;3.42;3.13;;;16.60;94.70;;;;;;5071419;28;20203;-66
2023/01/01 11:53:26;;;;;;;3.50;2.83;;;16.60;94.70;;;;;;5073410;28;20251;-66
2023/01/01 11:56:17;;;;;;;3.60;3.30;;;16.60;94.70;;;;;;5072477;28;20635;-66
2023/01/01 11:59:12;;;;;;;4.32;3.08;;;16.60;94.70;;;;;;5074205;28;20231;-66
2023/01/01 12:02:04;;;;;;;3.03;2.60;;;16.60;94.60;;;;;;5072959;28;20256;-66
2023/01/01 12:05:00;;;;;;;3.83;3.38;;;16.60;94.60;;;;;;5073785;28;20201;-66
2023/01/01 12:07:49;;;;;;;3.53;3.13;;;16.60;94.70;;;;;;5074485;28;20350;-66
2023/01/01 12:10:44;;;;;;;5.47;3.22;;;16.60;94.70;;;;;;5072724;28;20275;-66
2023/01/01 12:13:40;;;;;;;3.40;3.10;;;16.60;94.70;;;;;;5074278;28;20200;-66
2023/01/01 12:16:39;;;;;;;3.50;2.75;;;16.60;94.70;;;;;;5075208;28;20211;-66
2023/01/01 12:19:34;;;;;;;3.30;3.00;;;16.60;94.70;;;;;;5072594;28;20223;-67
2023/01/01 12:22:24;;;;;;;4.43;2.78;;;16.60;94.70;;;;;;5074104;28;20203;-67
2023/01/01 12:25:14;;;;;;;4.40;3.20;;;16.60;94.60;;;;;;5073547;28;20200;-67
2023/01/01 12:28:15;;;;;;;3.83;3.30;;;16.60;94.60;;;;;;5072102;28;20217;-67
2023/01/01 12:31:12;;;;;;;3.25;2.90;;;16.60;94.60;;;;;;5071562;28;20199;-67
2023/01/01 12:34:13;;;;;;;3.10;2.80;;;16.60;94.60;;;;;;5072853;28;20205;-67
2023/01/01 12:37:08;;;;;;;4.38;3.67;;;16.60;94.60;;;;;;5073419;28;20203;-67
2023/01/01 12:40:23;;;;;;;3.78;2.85;;;16.60;94.60;;;;;;5095851;22;20314;-70
2023/01/01 12:43:20;;;;;;;4.43;3.00;;;16.60;94.60;;;;;;5071417;28;20233;-70
2023/01/01 12:46:42;;;;;;;3.03;2.77;;;16.60;94.60;;;;;;5071142;28;20275;-69
2023/01/01 12:49:48;;;;;;;2.95;2.47;;;16.60;94.60;;;;;;5047902;28;20365;-68
2023/01/01 12:52:50;;;;;;;3.17;2.97;;;16.60;94.60;;;;;;5072524;28;20201;-71
2023/01/01 12:56:03;;;;;;;4.30;3.05;;;16.60;94.60;;;;;;5072665;28;20204;-69
2023/01/01 12:58:56;;;;;;;5.65;3.05;;;16.60;94.60;;;;;;5072458;28;20221;-70
2023/01/01 13:01:45;;;;;;;3.03;2.83;;;16.60;94.60;;;;;;5072399;28;20242;-68
2023/01/01 13:04:36;;;;;;;2.55;2.35;;;16.60;94.70;;;;;;5072313;28;20220;-71
2023/01/01 13:07:29;;;;;;;3.20;2.60;;;16.60;94.70;;;;;;5072431;28;20247;-71
2023/01/01 13:10:26;;;;;;;4.82;3.10;;;16.60;94.70;;;;;;5072220;28;20196;-71
2023/01/01 13:13:16;;;;;;;3.40;3.10;;;16.60;94.70;;;;;;5072364;28;20204;-70
2023/01/01 13:16:05;;;;;;;3.65;2.97;;;16.70;94.70;;;;;;5072098;28;20199;-71
2023/01/01 13:18:53;;;;;;;2.53;2.28;;;16.60;94.60;;;;;;5070846;28;20212;-67
2023/01/01 13:21:49;;;;;;;3.00;2.50;;;16.60;94.70;;;;;;5072014;28;20546;-70
2023/01/01 13:24:37;;;;;;;2.72;2.53;;;16.60;94.70;;;;;;5070838;28;20207;-67
2023/01/01 13:27:55;;;;;;;4.18;3.22;;;16.70;94.70;;;;;;5071988;28;20197;-70
2023/01/01 13:30:49;;;;;;;2.85;2.65;;;16.60;94.70;;;;;;5070339;28;20280;-71
2023/01/01 13:33:37;;;;;;;2.92;2.70;;;16.70;94.70;;;;;;5072379;28;20608;-68
2023/01/01 13:36:32;;;;;;;3.45;2.78;;;16.70;94.70;;;;;;5071872;28;20696;-69
2023/01/01 13:39:53;;;;;;;2.65;2.45;;;16.60;94.60;;;;;;5071725;28;20221;-72
2023/01/01 13:42:50;;;;;;;2.45;2.20;;;16.70;94.70;;;;;;5070812;28;20204;-68
2023/01/01 13:45:42;;;;;;;3.53;2.93;;;16.70;94.70;;;;;;5072010;28;20193;-70
2023/01/01 13:49:13;;;;;;;3.00;2.80;;;16.70;94.70;;;;;;5071701;28;20225;-70
2023/01/01 13:52:20;;;;;;;4.20;2.70;;;16.70;94.70;;;;;;5071153;28;20210;-71
2023/01/01 13:55:50;;;;;;;2.85;2.50;;;16.70;94.70;;;;;;5072154;28;20246;-68
2023/01/01 13:58:57;;;;;;;3.22;2.92;;;16.70;94.70;;;;;;5071217;28;20230;-71
2023/01/01 14:01:52;;;;;;;5.38;2.70;;;16.70;94.70;;;;;;5071494;28;20733;-69
2023/01/01 14:04:46;;;;;;;2.50;2.30;;;16.70;94.70;;;;;;5071952;28;20197;-68
2023/01/01 14:07:41;;;;;;;3.13;2.83;;;16.70;94.70;;;;;;5071643;28;20282;-71
2023/01/01 14:10:39;;;;;;;3.83;2.90;;;16.70;94.70;;;;;;5071418;28;20604;-66
2023/01/01 14:13:31;;;;;;;5.47;2.85;;;16.70;94.70;;;;;;5071631;28;20337;-67
2023/01/01 14:16:19;;;;;;;2.92;2.35;;;16.70;94.70;;;;;;5071461;28;20200;-71
2023/01/01 14:19:10;;;;;;;5.95;3.03;;;16.70;94.70;;;;;;5071352;28;20220;-71
2023/01/01 14:22:08;;;;;;;8.10;2.67;;;16.70;94.70;;;;;;5071419;28;20201;-69
2023/01/01 14:24:56;;;;;;;2.80;2.60;;;16.70;94.70;;;;;;5071668;28;20246;-67
2023/01/01 14:27:45;;;;;;;3.72;2.65;;;16.70;94.70;;;;;;5071400;28;20204;-70
2023/01/01 14:30:33;;;;;;;5.28;2.80;;;16.70;94.70;;;;;;5071069;28;20643;-67
2023/01/01 14:33:24;;;;;;;2.78;2.28;;;16.70;94.70;;;;;;5071533;28;20199;-69
2023/01/01 14:36:20;;;;;;;3.17;2.28;;;16.70;94.70;;;;;;5071029;28;20566;-69
2023/01/01 14:39:24;;;;;;;3.40;2.70;;;16.70;94.70;;;;;;5070988;28;20635;-71
2023/01/01 14:42:17;;;;;;;2.47;2.28;;;16.70;94.70;;;;;;5070830;28;20209;-70
2023/01/01 14:45:06;;;;;;;3.00;2.75;;;16.70;94.70;;;;;;5071173;28;20745;-71
2023/01/01 14:47:56;;;;;;;3.67;2.20;;;16.70;99.50;;;;;;5074019;28;20222;-68
2023/01/01 14:50:48;;;;;;;6.03;2.85;;;16.70;94.70;;;;;;5075322;28;20573;-69
2023/01/01 14:53:36;;;;;;;2.60;2.38;;;16.70;94.80;;;;;;5075138;28;20201;-70
2023/01/01 14:56:27;;;;;;;3.60;2.45;;;16.70;94.70;;;;;;5074710;28;20575;-69
2023/01/01 14:59:22;;;;;;;3.47;2.20;;;16.70;94.70;;;;;;5073336;28;20224;-66
2023/01/01 15:02:14;;;;;;;3.67;2.85;;;16.70;94.70;;;;;;5074474;28;20280;-71
2023/01/01 15:05:28;;;;;;;2.20;2.00;;;16.70;94.70;;;;;;5073617;28;20247;-68